Time;durP1;ratioP1;P1;durP2;ratioP2;P2;SDS_P1;SDS_P2;PMS_P1;PMS_P2;Temp;Humidity;BMP_temperature;BMP_pressure;BME280_temperature;BME280_humidity;BME280_pressure;Samples;Min_cycle;Max_cycle;Signal;HPM_P1;HPM_P2
2021/01/22 00:01:09;;;;;;;20.73;15.23;;;2.60;99.90;;;;;;5030326;28;20195;-77
2021/01/22 00:03:35;;;;;;;21.97;15.43;;;2.60;99.90;;;;;;5030411;28;20218;-77
2021/01/22 00:06:01;;;;;;;24.70;15.57;;;2.70;99.90;;;;;;5030607;28;20198;-77
2021/01/22 00:08:26;;;;;;;24.17;15.60;;;2.70;99.90;;;;;;5029122;28;20222;-76
2021/01/22 00:10:53;;;;;;;20.47;15.13;;;2.70;99.90;;;;;;5029411;28;20611;-76
2021/01/22 00:13:18;;;;;;;22.70;15.90;;;2.70;99.90;;;;;;5027459;28;20265;-77
2021/01/22 00:15:44;;;;;;;20.40;15.77;;;2.70;99.90;;;;;;5029849;28;20249;-77
2021/01/22 00:18:09;;;;;;;24.70;16.87;;;2.70;99.90;;;;;;5031382;28;20190;-77
2021/01/22 00:20:35;;;;;;;20.17;15.13;;;2.70;99.90;;;;;;5034776;28;20207;-77
2021/01/22 00:23:04;;;;;;;19.77;14.80;;;2.70;99.90;;;;;;5035221;28;20190;-76
2021/01/22 00:25:29;;;;;;;18.53;14.93;;;2.70;99.90;;;;;;5032708;28;20229;-77
2021/01/22 00:27:55;;;;;;;19.13;14.53;;;2.70;99.90;;;;;;5033315;28;20206;-76
2021/01/22 00:30:21;;;;;;;20.23;15.13;;;2.70;99.90;;;;;;5034709;28;20189;-77
2021/01/22 00:32:47;;;;;;;22.90;16.03;;;2.70;99.90;;;;;;5034987;28;20202;-77
2021/01/22 00:35:13;;;;;;;18.07;14.43;;;2.70;99.90;;;;;;5034574;28;20569;-77
2021/01/22 00:37:38;;;;;;;19.10;14.63;;;2.70;99.90;;;;;;5034691;28;20252;-77
2021/01/22 00:40:06;;;;;;;21.70;15.87;;;2.70;99.90;;;;;;5034394;28;20343;-77
2021/01/22 00:42:33;;;;;;;21.27;14.23;;;2.60;99.90;;;;;;5033263;28;20174;-77
2021/01/22 00:44:59;;;;;;;15.77;14.00;;;2.60;99.90;;;;;;5034239;28;20198;-77
2021/01/22 00:47:25;;;;;;;20.90;14.50;;;2.60;99.90;;;;;;5034656;28;20180;-77
2021/01/22 00:49:51;;;;;;;18.53;14.47;;;2.60;99.90;;;;;;5034374;28;20176;-77
2021/01/22 00:52:18;;;;;;;18.73;14.17;;;2.60;99.90;;;;;;5033343;28;20190;-77
2021/01/22 00:54:44;;;;;;;18.57;13.87;;;2.60;99.90;;;;;;5034462;28;20206;-77
2021/01/22 00:57:10;;;;;;;18.57;14.17;;;2.60;99.90;;;;;;5034528;28;20178;-77
2021/01/22 00:59:35;;;;;;;21.57;15.47;;;2.70;99.90;;;;;;5034093;28;20688;-77
2021/01/22 01:02:01;;;;;;;19.83;14.77;;;2.70;99.90;;;;;;5034544;28;20623;-77
2021/01/22 01:04:26;;;;;;;19.57;14.57;;;2.70;99.90;;;;;;5034726;28;20189;-77
2021/01/22 01:06:52;;;;;;;22.60;14.93;;;2.80;99.90;;;;;;5034425;28;20645;-76
2021/01/22 01:09:18;;;;;;;12.77;10.07;;;2.80;99.90;;;;;;5034714;28;20174;-77
2021/01/22 01:11:44;;;;;;;6.37;5.13;;;3.10;99.90;;;;;;5034491;28;20565;-77
2021/01/22 01:14:10;;;;;;;8.10;5.87;;;3.80;99.90;;;;;;5034384;28;20642;-77
2021/01/22 01:16:37;;;;;;;4.13;3.73;;;4.00;99.90;;;;;;5033788;28;20228;-77
2021/01/22 01:19:03;;;;;;;3.23;2.93;;;4.30;99.90;;;;;;5034375;28;20190;-77
2021/01/22 01:21:29;;;;;;;3.03;2.80;;;4.60;99.90;;;;;;5034432;28;20224;-77
2021/01/22 01:23:54;;;;;;;2.50;2.10;;;4.70;99.90;;;;;;5034267;28;20174;-77
2021/01/22 01:26:21;;;;;;;1.93;1.30;;;4.70;99.90;;;;;;5034068;28;20279;-77
2021/01/22 01:28:47;;;;;;;2.93;1.60;;;;;;;;;;5034100;28;20171;-77
2021/01/22 01:31:13;;;;;;;1.40;0.90;;;5.60;99.90;;;;;;5033732;28;20205;-77
2021/01/22 01:33:39;;;;;;;1.63;0.90;;;;;;;;;;5032712;28;20178;-77
2021/01/22 01:36:06;;;;;;;1.37;0.97;;;;;;;;;;5034219;28;20210;-77
2021/01/22 01:38:32;;;;;;;1.00;0.90;;;;;;;;;;5033949;28;20649;-77
2021/01/22 01:40:59;;;;;;;1.30;0.90;;;;;;;;;;5033768;28;20205;-77
2021/01/22 01:43:25;;;;;;;1.00;0.80;;;;;;;;;;5034176;28;20176;-76
2021/01/22 01:45:51;;;;;;;1.87;0.77;;;;;;;;;;5033747;28;20275;-76
2021/01/22 01:48:18;;;;;;;1.13;0.70;;;;;;;;;;5033519;28;20623;-76
2021/01/22 01:50:45;;;;;;;2.63;0.60;;;;;;;;;;5033691;28;20188;-76
2021/01/22 01:53:11;;;;;;;1.80;0.80;;;;;;;;;;5033693;28;20675;-76
2021/01/22 01:55:37;;;;;;;0.93;0.73;;;;;;;;;;5033481;28;20268;-76
2021/01/22 01:58:04;;;;;;;1.97;0.80;;;;;;;;;;5033561;28;20236;-76
2021/01/22 02:00:31;;;;;;;1.60;0.60;;;;;;;;;;5033491;28;20824;-76
2021/01/22 02:02:57;;;;;;;1.90;0.70;;;;;;;;;;5033388;28;20181;-77
2021/01/22 02:05:24;;;;;;;2.43;0.60;;;;;;;;;;5032143;28;20282;-76
2021/01/22 02:07:50;;;;;;;3.53;0.60;;;;;;;;;;5032590;28;20269;-76
2021/01/22 02:10:16;;;;;;;1.57;0.70;;;;;;;;;;5033662;28;20198;-77
2021/01/22 02:12:44;;;;;;;1.33;0.67;;;;;;;;;;5033201;28;20186;-77
2021/01/22 02:15:13;;;;;;;1.67;0.80;;;;;;;;;;5033213;28;20277;-77
2021/01/22 02:17:40;;;;;;;1.57;0.80;;;;;;;;;;5033108;28;20212;-77
2021/01/22 02:20:07;;;;;;;2.30;0.70;;;;;;;;;;5033093;28;20219;-77
2021/01/22 02:22:33;;;;;;;2.17;0.60;;;;;;;;;;5033396;28;20190;-76
2021/01/22 02:25:00;;;;;;;0.90;0.50;;;;;;;;;;5033222;28;20194;-77
2021/01/22 02:27:26;;;;;;;1.47;0.60;;;;;;;;;;5032955;28;20186;-77
2021/01/22 02:29:53;;;;;;;2.77;0.70;;;;;;;;;;5028083;28;20250;-77
2021/01/22 02:32:19;;;;;;;2.07;0.60;;;;;;;;;;5033014;28;20262;-77
2021/01/22 02:34:47;;;;;;;2.20;1.00;;;;;;;;;;5033058;28;20283;-77
2021/01/22 02:37:16;;;;;;;1.70;0.57;;;;;;;;;;5031683;28;20638;-77
2021/01/22 02:39:48;;;;;;;0.90;0.50;;;;;;;;;;5032929;28;20190;-77
2021/01/22 02:42:15;;;;;;;2.17;0.57;;;;;;;;;;5026514;28;20194;-77
2021/01/22 02:44:42;;;;;;;1.13;0.50;;;;;;;;;;5020981;28;20230;-76
2021/01/22 02:47:09;;;;;;;2.13;0.70;;;;;;;;;;5030966;28;20179;-76
2021/01/22 02:49:36;;;;;;;1.63;0.70;;;;;;;;;;5029516;28;20214;-76
2021/01/22 02:52:02;;;;;;;0.60;0.50;;;;;;;;;;5032151;28;20571;-76
2021/01/22 02:54:28;;;;;;;2.00;0.40;;;;;;;;;;5033451;28;20257;-77
2021/01/22 02:57:13;;;;;;;0.87;0.47;;;;;;;;;;5032445;28;20267;-77
2021/01/22 02:59:42;;;;;;;2.67;0.53;;;;;;;;;;5031151;28;20185;-76
2021/01/22 03:02:27;;;;;;;0.97;0.40;;;;;;;;;;5032326;28;20294;-77
2021/01/22 03:04:53;;;;;;;2.57;0.43;;;;;;;;;;5032419;28;20218;-77
2021/01/22 03:07:22;;;;;;;2.27;0.50;;;;;;;;;;5032404;28;20186;-77
2021/01/22 03:09:52;;;;;;;1.33;0.43;;;;;;;;;;5032242;28;20658;-77
2021/01/22 03:12:19;;;;;;;1.53;0.60;;;;;;;;;;5032615;28;20175;-77
2021/01/22 03:14:45;;;;;;;1.13;0.60;;;;;;;;;;5032066;28;20207;-77
2021/01/22 03:17:11;;;;;;;2.40;0.77;;;;;;;;;;5031078;28;20177;-77
2021/01/22 03:19:47;;;;;;;2.23;0.70;;;;;;;;;;5032181;28;20234;-77
2021/01/22 03:22:14;;;;;;;1.83;0.63;;;;;;;;;;5032256;28;20178;-77
2021/01/22 03:24:41;;;;;;;1.43;0.50;;;;;;;;;;5032092;28;20288;-77
2021/01/22 03:27:08;;;;;;;1.43;0.60;;;;;;;;;;5032372;28;20183;-77
2021/01/22 03:29:35;;;;;;;3.50;1.10;;;;;;;;;;5032446;28;20184;-78
2021/01/22 03:32:02;;;;;;;3.30;1.00;;;;;;;;;;5032449;28;20187;-77
2021/01/22 03:34:29;;;;;;;3.43;1.30;;;;;;;;;;5032301;28;20206;-77
2021/01/22 03:36:58;;;;;;;2.73;1.53;;;;;;;;;;5030484;28;20180;-77
2021/01/22 03:39:25;;;;;;;2.57;0.80;;;;;;;;;;5032157;28;20192;-77
2021/01/22 03:41:51;;;;;;;2.93;1.33;;;;;;;;;;5031958;28;20244;-77
2021/01/22 03:44:17;;;;;;;3.20;0.87;;;;;;;;;;5031893;28;20182;-77
2021/01/22 03:46:44;;;;;;;6.83;2.67;;;;;;;;;;5031999;28;20227;-77
2021/01/22 03:49:10;;;;;;;3.17;1.60;;;;;;;;;;5032007;28;20183;-78
2021/01/22 03:51:36;;;;;;;2.30;0.80;;;;;;;;;;5032023;28;20186;-77
2021/01/22 03:54:03;;;;;;;2.60;1.10;;;;;;;;;;5032750;28;20213;-77
2021/01/22 03:56:29;;;;;;;2.50;0.80;;;;;;;;;;5035812;28;20206;-77
2021/01/22 03:58:55;;;;;;;1.10;0.60;;;;;;;;;;5035816;28;20183;-78
2021/01/22 04:01:22;;;;;;;0.90;0.50;;;;;;;;;;5034369;28;20711;-78
2021/01/22 04:03:48;;;;;;;1.00;0.50;;;;;;;;;;5035750;28;20183;-78
2021/01/22 04:06:14;;;;;;;2.47;0.70;;;;;;;;;;5035592;28;20673;-78
2021/01/22 04:08:40;;;;;;;0.90;0.30;;;;;;;;;;5035637;28;20638;-78
2021/01/22 04:11:06;;;;;;;2.37;0.67;;;;;;;;;;5035630;28;20193;-78
2021/01/22 04:13:32;;;;;;;2.17;0.67;;;;;;;;;;5035610;28;20184;-77
2021/01/22 04:15:59;;;;;;;2.00;0.50;;;;;;;;;;5032050;28;20768;-78
2021/01/22 04:18:25;;;;;;;1.47;0.60;;;;;;;;;;5034227;28;20184;-77
2021/01/22 04:20:51;;;;;;;1.17;0.70;;;;;;;;;;5034050;28;20292;-77
2021/01/22 04:23:17;;;;;;;0.80;0.60;;;;;;;;;;5035289;28;20181;-77
2021/01/22 04:25:43;;;;;;;1.20;0.50;;;;;;;;;;5032755;28;20201;-77
2021/01/22 04:28:10;;;;;;;1.90;0.90;;;;;;;;;;5034026;28;20182;-78
2021/01/22 04:30:36;;;;;;;2.70;0.77;;;;;;;;;;5033976;28;20228;-77
2021/01/22 04:33:02;;;;;;;1.40;0.90;;;;;;;;;;5035461;28;20186;-78
2021/01/22 04:35:28;;;;;;;1.40;0.73;;;;;;;;;;5035077;28;20200;-78
2021/01/22 04:37:54;;;;;;;3.37;1.17;;;;;;;;;;5035172;28;20190;-77
2021/01/22 04:40:21;;;;;;;1.70;1.00;;;;;;;;;;5034809;28;20704;-77
2021/01/22 04:42:47;;;;;;;2.73;0.90;;;;;;;;;;5035035;28;20236;-77
2021/01/22 04:45:14;;;;;;;3.53;2.10;;;;;;;;;;5034880;28;20199;-77
2021/01/22 04:47:40;;;;;;;4.40;0.97;;;;;;;;;;5034908;28;20174;-77
2021/01/22 04:50:07;;;;;;;4.37;1.10;;;;;;;;;;5034854;28;20197;-78
2021/01/22 04:52:35;;;;;;;2.63;0.80;;;;;;;;;;5035089;28;20170;-78
2021/01/22 04:55:09;;;;;;;5.17;2.47;;;;;;;;;;5034738;28;20218;-78
2021/01/22 04:57:38;;;;;;;2.50;0.97;;;;;;;;;;5034919;28;20186;-77
2021/01/22 05:00:05;;;;;;;3.37;0.83;;;;;;;;;;5034624;28;20198;-78
2021/01/22 05:02:32;;;;;;;7.03;1.50;;;;;;;;;;5026283;28;20179;-77
2021/01/22 05:04:59;;;;;;;3.13;2.57;;;;;;;;;;5026971;28;20195;-76
2021/01/22 05:07:25;;;;;;;8.37;1.77;;;;;;;;;;5029638;28;20650;-77
2021/01/22 05:09:54;;;;;;;1.77;1.10;;;;;;;;;;5032667;28;20202;-77
2021/01/22 05:12:20;;;;;;;3.03;1.20;;;;;;;;;;5032779;28;20181;-77
2021/01/22 05:14:46;;;;;;;5.67;1.67;;;;;;;;;;5034073;28;20213;-77
2021/01/22 05:17:13;;;;;;;3.40;1.40;;;;;;;;;;5033876;28;20253;-77
2021/01/22 05:19:41;;;;;;;1.10;0.83;;;;;;;;;;5034569;28;20182;-77
2021/01/22 05:22:08;;;;;;;4.83;1.27;;;;;;;;;;5034175;28;20681;-77
2021/01/22 05:24:34;;;;;;;2.57;1.30;;;;;;;;;;5034180;28;20182;-77
2021/01/22 05:27:01;;;;;;;3.53;1.20;;;;;;;;;;5034112;28;20184;-77
2021/01/22 05:29:28;;;;;;;5.40;2.50;;;;;;;;;;5034449;28;20186;-77
2021/01/22 05:31:55;;;;;;;3.53;2.00;;;;;;;;;;5034298;28;20261;-77
2021/01/22 05:34:21;;;;;;;23.63;15.60;;;;;;;;;;5033956;28;20186;-76
2021/01/22 05:36:48;;;;;;;8.70;4.67;;;;;;;;;;5033974;28;20186;-76
2021/01/22 05:39:18;;;;;;;6.70;6.00;;;;;;;;;;5032900;28;20186;-77
2021/01/22 05:41:53;;;;;;;13.23;8.27;;;;;;;;;;5032603;28;20289;-77
2021/01/22 05:44:23;;;;;;;2.20;1.53;;;;;;;;;;5033986;28;20256;-77
2021/01/22 05:47:06;;;;;;;28.83;12.97;;;;;;;;;;5033844;28;20676;-77
2021/01/22 05:49:33;;;;;;;8.57;5.50;;;;;;;;;;5033707;28;20175;-77
2021/01/22 05:52:00;;;;;;;16.50;8.37;;;;;;;;;;5033641;28;20178;-77
2021/01/22 05:54:38;;;;;;;7.43;4.27;;;;;;;;;;5033521;28;20182;-77
2021/01/22 05:57:06;;;;;;;6.97;4.10;;;;;;;;;;5033601;28;20662;-76
2021/01/22 05:59:32;;;;;;;5.23;4.40;;;;;;;;;;5033585;28;20273;-77
2021/01/22 06:01:59;;;;;;;7.23;3.53;;;;;;;;;;5033228;28;20211;-77
2021/01/22 06:04:25;;;;;;;3.60;2.37;;;;;;;;;;5033342;28;20184;-77
2021/01/22 06:06:51;;;;;;;3.37;2.60;;;;;;;;;;5023093;28;20592;-79
2021/01/22 06:09:33;;;;;;;5.03;3.00;;;;;;;;;;5032911;28;20175;-77
2021/01/22 06:12:03;;;;;;;5.00;1.73;;;;;;;;;;5033331;28;20253;-78
2021/01/22 06:14:38;;;;;;;5.57;4.37;;;;;;;;;;5049662;22;20226;-77
2021/01/22 06:17:06;;;;;;;4.10;2.47;;;;;;;;;;5032454;28;20175;-77
2021/01/22 06:19:42;;;;;;;4.47;2.07;;;;;;;;;;5014440;28;20182;-75
2021/01/22 06:22:11;;;;;;;3.70;2.73;;;;;;;;;;5034271;28;20194;-76
2021/01/22 06:24:38;;;;;;;10.10;4.30;;;;;;;;;;5034109;28;20187;-75
2021/01/22 06:27:04;;;;;;;8.80;5.00;;;;;;;;;;5032408;28;20686;-77
2021/01/22 06:29:31;;;;;;;18.93;9.43;;;;;;;;;;5014348;28;20179;-75
2021/01/22 06:31:57;;;;;;;6.63;4.00;;;;;;;;;;5014501;28;20207;-75
2021/01/22 06:34:25;;;;;;;3.30;2.63;;;;;;;;;;5014116;28;20698;-75
2021/01/22 06:36:52;;;;;;;6.57;3.10;;;;;;;;;;4985686;28;20706;-75
2021/01/22 06:39:19;;;;;;;4.87;2.40;;;;;;;;;;4996874;28;20183;-75
2021/01/22 06:41:46;;;;;;;6.73;2.70;;;;;;;;;;5013995;28;20198;-75
2021/01/22 06:44:12;;;;;;;6.53;2.93;;;;;;;;;;4996706;28;20291;-75
2021/01/22 06:46:39;;;;;;;8.37;3.27;;;;;;;;;;5014362;28;20225;-75
2021/01/22 06:49:05;;;;;;;7.10;3.10;;;;;;;;;;4996445;28;20179;-76
2021/01/22 06:51:34;;;;;;;4.50;2.73;;;;;;;;;;5014342;28;20183;-76
2021/01/22 06:54:03;;;;;;;5.40;2.83;;;;;;;;;;5013867;28;20223;-76
2021/01/22 06:56:29;;;;;;;6.87;3.47;;;;;;;;;;5014246;28;20225;-76
2021/01/22 06:58:55;;;;;;;9.47;4.47;;;;;;;;;;4996360;28;20183;-76
2021/01/22 07:01:32;;;;;;;6.60;3.47;;;;;;;;;;5013917;28;20673;-76
2021/01/22 07:03:58;;;;;;;5.03;3.10;;;;;;;;;;5014030;28;20206;-76
2021/01/22 07:06:31;;;;;;;6.87;3.20;;;;;;;;;;5013923;28;20224;-75
2021/01/22 07:08:58;;;;;;;6.20;3.37;;;;;;;;;;4996264;28;20258;-75
2021/01/22 07:11:24;;;;;;;9.00;7.40;;;;;;;;;;4996114;28;20270;-76
2021/01/22 07:13:51;;;;;;;10.47;4.57;;;;;;;;;;4996103;28;20276;-77
2021/01/22 07:16:17;;;;;;;4.57;3.33;;;;;;;;;;5013800;28;20214;-76
2021/01/22 07:18:57;;;;;;;7.10;3.40;;;;;;;;;;5013667;28;20211;-76
2021/01/22 07:21:24;;;;;;;7.43;3.70;;;;;;;;;;5013583;28;20205;-76
2021/01/22 07:23:51;;;;;;;6.73;3.73;;;;;;;;;;5013904;28;20284;-76
2021/01/22 07:26:17;;;;;;;4.87;3.63;;;;;;;;;;5013465;28;20202;-76
2021/01/22 07:28:51;;;;;;;7.47;4.10;;;;;;;;;;5014806;28;20179;-76
2021/01/22 07:31:36;;;;;;;7.30;3.53;;;;;;;;;;5019923;28;20181;-77
2021/01/22 07:34:02;;;;;;;6.93;4.03;;;;;;;;;;5020059;28;20700;-73
2021/01/22 07:36:29;;;;;;;6.53;3.43;;;;;;;;;;5019845;28;20178;-77
2021/01/22 07:38:56;;;;;;;4.87;3.23;;;;;;;;;;5019893;28;20174;-77
2021/01/22 07:41:22;;;;;;;6.87;3.30;;;;;;;;;;5019686;28;20198;-76
2021/01/22 07:44:10;;;;;;;4.43;2.83;;;;;;;;;;5019580;28;20205;-76
2021/01/22 07:46:46;;;;;;;5.93;3.20;;;;;;;;;;5016473;28;20266;-76
2021/01/22 07:49:12;;;;;;;5.90;4.50;;;;;;;;;;5019777;28;20166;-76
2021/01/22 07:51:38;;;;;;;7.77;6.37;;;;;;;;;;5019775;28;20657;-76
2021/01/22 07:54:04;;;;;;;5.73;4.90;;;;;;;;;;5019649;28;20713;-75
2021/01/22 07:56:33;;;;;;;7.77;5.20;;;;;;;;;;5019718;28;20229;-76
2021/01/22 07:59:00;;;;;;;7.03;4.47;;;;;;;;;;5002123;28;20581;-77
2021/01/22 08:01:26;;;;;;;11.77;4.60;;;;;;;;;;5019501;28;20685;-77
2021/01/22 08:03:53;;;;;;;8.67;4.70;;;;;;;;;;5019229;28;20731;-77
2021/01/22 08:06:19;;;;;;;7.60;4.50;;;;;;;;;;5001934;28;20171;-77
2021/01/22 08:08:46;;;;;;;14.10;6.37;;;;;;;;;;5019843;28;20198;-76
2021/01/22 08:11:23;;;;;;;9.87;4.83;;;;;;;;;;5019517;28;20183;-75
2021/01/22 08:13:49;;;;;;;11.70;5.07;;;;;;;;;;5001821;28;20272;-76
2021/01/22 08:16:22;;;;;;;16.13;5.70;;;;;;;;;;5019558;28;20193;-77
2021/01/22 08:18:48;;;;;;;10.70;6.73;;;;;;;;;;5019539;28;20186;-76
2021/01/22 08:21:15;;;;;;;15.47;6.80;;;;;;;;;;5019585;28;20195;-75
2021/01/22 08:23:44;;;;;;;14.07;8.10;;;;;;;;;;5014691;28;20191;-76
2021/01/22 08:26:11;;;;;;;16.73;8.27;;;;;;;;;;5018503;28;20179;-77
2021/01/22 08:28:40;;;;;;;7.60;6.10;;;;;;;;;;5015153;28;20254;-77
2021/01/22 08:31:07;;;;;;;11.37;7.07;;;;;;;;;;5007059;28;20175;-77
2021/01/22 08:33:34;;;;;;;11.67;9.20;;;;;;;;;;5024072;28;20205;-77
2021/01/22 08:36:00;;;;;;;16.13;11.63;;;;;;;;;;5022436;28;20191;-77
2021/01/22 08:38:27;;;;;;;19.47;10.93;;;;;;;;;;5020479;28;20175;-76
2021/01/22 08:40:53;;;;;;;19.60;11.17;;;;;;;;;;5001269;28;20564;-76
2021/01/22 08:43:19;;;;;;;20.77;14.30;;;;;;;;;;5017784;28;20199;-77
2021/01/22 08:46:06;;;;;;;21.43;11.73;;;;;;;;;;5017279;28;20179;-77
2021/01/22 08:48:36;;;;;;;15.33;9.33;;;;;;;;;;5017261;28;20178;-75
2021/01/22 08:51:02;;;;;;;16.83;9.97;;;;;;;;;;5017493;28;20183;-77
2021/01/22 08:53:28;;;;;;;18.10;10.30;;;;;;;;;;4999418;28;20254;-77
2021/01/22 08:56:11;;;;;;;17.37;9.50;;;;;;;;;;5016851;28;20228;-76
2021/01/22 08:58:56;;;;;;;17.23;10.30;;;;;;;;;;5017151;28;20175;-77
2021/01/22 09:01:23;;;;;;;17.67;8.23;;;;;;;;;;5017425;28;20209;-77
2021/01/22 09:03:49;;;;;;;12.17;7.93;;;;;;;;;;5017611;28;20220;-77
2021/01/22 09:06:16;;;;;;;14.63;7.70;;;;;;;;;;5017141;28;20176;-76
2021/01/22 09:08:55;;;;;;;18.73;7.93;;;;;;;;;;5017199;28;20171;-77
2021/01/22 09:11:39;;;;;;;14.00;7.53;;;;;;;;;;5017318;28;20224;-77
2021/01/22 09:14:06;;;;;;;14.73;7.67;;;;;;;;;;5017007;28;20272;-76
2021/01/22 09:16:32;;;;;;;11.10;7.00;;;;;;;;;;4999269;28;20262;-76
2021/01/22 09:19:01;;;;;;;14.23;7.60;;;;;;;;;;5017308;28;20258;-76
2021/01/22 09:21:28;;;;;;;10.13;6.67;;;;;;;;;;5016015;28;20185;-77
2021/01/22 09:23:54;;;;;;;13.63;7.43;;;;;;;;;;5016231;28;20202;-76
2021/01/22 09:26:20;;;;;;;18.73;10.00;;;;;;;;;;5016987;28;20171;-76
2021/01/22 09:28:46;;;;;;;13.50;9.30;;;;;;;;;;5016910;28;20548;-76
2021/01/22 09:31:12;;;;;;;13.03;8.80;;;;;;;;;;5017165;28;20187;-76
2021/01/22 09:33:38;;;;;;;10.77;7.90;;;;;;;;;;5016777;28;20257;-77
2021/01/22 09:36:05;;;;;;;18.80;8.30;;;;;;;;;;5016889;28;20188;-77
2021/01/22 09:38:31;;;;;;;16.00;8.60;;;;;;;;;;4999619;28;20173;-76
2021/01/22 09:40:57;;;;;;;15.13;9.20;;;;;;;;;;5016906;28;20202;-76
2021/01/22 09:43:23;;;;;;;18.27;8.63;;;;;;;;;;4998879;28;20630;-76
2021/01/22 09:45:49;;;;;;;14.80;8.80;;;;;;;;;;5017115;28;20222;-76
2021/01/22 09:48:17;;;;;;;21.23;9.00;;;;;;;;;;5016858;28;20181;-75
2021/01/22 09:50:43;;;;;;;11.37;8.13;;;;;;;;;;5016477;28;20658;-76
2021/01/22 09:53:10;;;;;;;57.00;25.77;;;;;;;;;;4998304;28;20205;-76
2021/01/22 09:55:36;;;;;;;19.23;11.37;;;;;;;;;;4998890;28;20191;-76
2021/01/22 09:58:02;;;;;;;14.93;9.67;;;;;;;;;;4999847;28;20179;-76
2021/01/22 10:00:28;;;;;;;15.80;9.70;;;;;;;;;;5016693;28;20589;-76
2021/01/22 10:02:54;;;;;;;13.47;7.33;;;;;;;;;;4998797;28;20663;-76
2021/01/22 10:05:20;;;;;;;11.47;6.57;;;;;;;;;;5016771;28;20176;-76
2021/01/22 10:07:47;;;;;;;12.70;6.37;;;;;;;;;;5015324;28;20176;-76
2021/01/22 10:10:13;;;;;;;12.77;8.27;;;;;;;;;;5014847;28;20258;-76
2021/01/22 10:12:40;;;;;;;15.97;9.53;;;;;;;;;;5014780;28;20270;-76
2021/01/22 10:15:07;;;;;;;11.00;6.17;;;;;;;;;;5014429;28;20249;-76
2021/01/22 10:17:33;;;;;;;12.67;7.23;;;;;;;;;;5014873;28;20255;-76
2021/01/22 10:20:00;;;;;;;28.40;16.03;;;;;;;;;;5014712;28;20254;-76
2021/01/22 10:22:26;;;;;;;15.00;6.90;;;;;;;;;;5010568;28;20724;-76
2021/01/22 10:24:52;;;;;;;6.63;3.93;;;;;;;;;;4993840;28;20198;-76
2021/01/22 10:27:18;;;;;;;6.80;3.80;;;;;;;;;;5014510;28;20177;-76
2021/01/22 10:29:45;;;;;;;12.07;4.83;;;;;;;;;;5029932;28;20240;-76
2021/01/22 10:32:11;;;;;;;16.00;10.27;;;;;;;;;;5020722;28;20186;-76
2021/01/22 10:34:37;;;;;;;6.90;5.13;;;;;;;;;;5021848;28;20203;-76
2021/01/22 10:37:03;;;;;;;7.23;3.87;;;;;;;;;;5017295;28;20183;-76
2021/01/22 10:39:29;;;;;;;6.10;3.37;;;;;;;;;;5035132;28;20684;-76
2021/01/22 10:41:56;;;;;;;5.17;3.57;;;;;;;;;;5034239;28;20196;-75
2021/01/22 10:44:22;;;;;;;6.13;3.07;;;;;;;;;;5034232;28;20199;-75
2021/01/22 10:46:48;;;;;;;4.90;2.77;;;;;;;;;;5016121;28;20661;-75
2021/01/22 10:49:14;;;;;;;4.37;2.40;;;;;;;;;;5016157;28;20231;-74
2021/01/22 10:51:40;;;;;;;6.00;3.67;;;;;;;;;;5034073;28;20185;-76
2021/01/22 10:54:06;;;;;;;11.93;3.73;;;;;;;;;;5016019;28;20571;-75
2021/01/22 10:56:32;;;;;;;6.93;4.17;;;;;;;;;;5033654;28;20181;-74
2021/01/22 10:58:58;;;;;;;8.70;3.80;;;;;;;;;;5033796;28;20216;-75
2021/01/22 11:01:24;;;;;;;4.80;3.30;;;;;;;;;;5033730;28;20252;-75
2021/01/22 11:03:50;;;;;;;4.47;3.03;;;;;;;;;;5032558;28;20205;-75
2021/01/22 11:06:17;;;;;;;8.90;4.47;;;;;;;;;;5033709;28;20174;-75
2021/01/22 11:08:43;;;;;;;6.43;4.60;;;;;;;;;;5016027;28;20178;-76
2021/01/22 11:11:09;;;;;;;8.97;4.77;;;;;;;;;;5016034;28;20191;-74
2021/01/22 11:13:35;;;;;;;13.97;7.27;;;;;;;;;;4999604;28;20233;-74
2021/01/22 11:16:01;;;;;;;8.53;5.70;;;;;;;;;;5015975;28;20183;-76
2021/01/22 11:18:27;;;;;;;9.93;6.00;;;;;;;;;;5034175;28;20193;-75
2021/01/22 11:20:53;;;;;;;9.17;5.53;;;;;;;;;;5015740;28;20196;-73
2021/01/22 11:23:20;;;;;;;18.50;8.30;;;;;;;;;;5033515;28;20192;-74
2021/01/22 11:25:46;;;;;;;7.57;4.50;;;;;;;;;;5015857;28;20178;-75
2021/01/22 11:28:12;;;;;;;11.97;5.73;;;;;;;;;;5022270;28;20182;-74
2021/01/22 11:30:38;;;;;;;6.87;5.23;;;;;;;;;;5013722;28;20701;-74
2021/01/22 11:33:04;;;;;;;10.10;7.47;;;;;;;;;;5013617;28;20191;-73
2021/01/22 11:35:34;;;;;;;10.93;6.97;;;;;;;;;;4996275;28;20538;-75
2021/01/22 11:38:00;;;;;;;9.00;6.70;;;;;;;;;;4995492;28;20189;-76
2021/01/22 11:40:26;;;;;;;10.77;7.13;;;;;;;;;;4995555;28;20198;-75
2021/01/22 11:42:52;;;;;;;8.73;5.73;;;;;;;;;;4995392;28;20566;-75
2021/01/22 11:45:18;;;;;;;12.93;7.63;;;;;;;;;;5012690;28;20672;-77
2021/01/22 11:47:44;;;;;;;13.70;7.07;;;;;;;;;;4984788;28;20182;-76
2021/01/22 11:50:11;;;;;;;8.83;5.57;;;;;;;;;;5002642;28;20174;-76
2021/01/22 11:52:36;;;;;;;6.30;4.43;;;;;;;;;;4993930;28;20207;-76
2021/01/22 11:55:03;;;;;;;7.40;3.73;;;;;;;;;;4999077;28;20539;-76
2021/01/22 11:57:29;;;;;;;7.17;3.50;;;;;;;;;;5000260;28;20182;-76
2021/01/22 11:59:55;;;;;;;4.97;2.87;;;;;;;;;;4993035;28;20257;-76
2021/01/22 12:02:21;;;;;;;10.03;5.70;;;;;;;;;;5004188;28;20210;-76
2021/01/22 12:04:47;;;;;;;7.00;4.33;;;;;;;;;;5000173;28;20193;-76
2021/01/22 12:07:14;;;;;;;6.43;3.23;;;;;;;;;;4984222;28;20183;-76
2021/01/22 12:09:40;;;;;;;6.33;3.23;;;;;;;;;;5005291;28;20181;-76
2021/01/22 12:12:08;;;;;;;4.67;3.23;;;;;;;;;;5001748;28;20189;-76
2021/01/22 12:14:34;;;;;;;6.93;3.73;;;;;;;;;;5008018;28;20327;-76
2021/01/22 12:17:00;;;;;;;4.77;2.83;;;;;;;;;;5011316;28;20195;-76
2021/01/22 12:19:26;;;;;;;3.50;2.63;;;;;;;;;;4988951;28;20194;-76
2021/01/22 12:21:53;;;;;;;5.23;1.90;;;;;;;;;;5005548;28;20207;-76
2021/01/22 12:24:19;;;;;;;3.60;2.43;;;;;;;;;;5010559;28;20202;-75
2021/01/22 12:26:46;;;;;;;5.63;2.57;;;;;;;;;;5012836;28;20174;-76
2021/01/22 12:29:12;;;;;;;2.77;2.20;;;;;;;;;;5010523;28;20315;-77
2021/01/22 12:31:38;;;;;;;3.80;2.60;;;;;;;;;;5014378;28;20576;-76
2021/01/22 12:34:04;;;;;;;3.37;2.10;;;;;;;;;;5044693;22;20687;-76
2021/01/22 12:36:31;;;;;;;11.13;6.77;;;;;;;;;;5033334;28;20186;-76
2021/01/22 12:38:57;;;;;;;14.80;7.63;;;;;;;;;;5028888;28;20192;-76
2021/01/22 12:41:23;;;;;;;3.67;2.10;;;;;;;;;;5032753;28;20204;-76
2021/01/22 12:43:49;;;;;;;5.83;3.60;;;;;;;;;;5034491;28;20568;-76
2021/01/22 12:46:15;;;;;;;7.73;4.67;;;;;;;;;;5035963;28;20180;-75
2021/01/22 12:48:41;;;;;;;4.70;3.10;;;;;;;;;;5035109;28;20177;-76
2021/01/22 12:51:07;;;;;;;9.43;4.63;;;;;;;;;;5035126;28;20178;-75
2021/01/22 12:53:34;;;;;;;11.23;4.93;;;;;;;;;;5034666;28;20197;-76
2021/01/22 12:56:00;;;;;;;9.47;5.10;;;;;;;;;;5036193;28;20176;-77
2021/01/22 12:58:26;;;;;;;9.63;5.30;;;;;;;;;;5036124;28;20180;-76
2021/01/22 13:00:52;;;;;;;36.53;16.43;;;;;;;;;;5035842;28;20193;-77
2021/01/22 13:03:19;;;;;;;29.40;14.00;;;;;;;;;;5035653;28;20200;-77
2021/01/22 13:05:45;;;;;;;18.90;8.40;;;;;;;;;;5036600;28;20193;-76
2021/01/22 13:08:11;;;;;;;16.27;8.93;;;;;;;;;;5034389;28;20203;-75
2021/01/22 13:10:37;;;;;;;5.60;4.23;;;;;;;;;;5035902;28;20194;-75
2021/01/22 13:13:03;;;;;;;8.07;4.17;;;;;;;;;;5035579;28;20182;-75
2021/01/22 13:15:29;;;;;;;7.20;4.70;;;;;;;;;;5033976;28;20182;-75
2021/01/22 13:17:55;;;;;;;5.30;4.10;;;;;;;;;;5035480;28;20182;-74
2021/01/22 13:20:21;;;;;;;5.57;4.00;;;;;;;;;;5034154;28;20265;-76
2021/01/22 13:22:47;;;;;;;12.77;7.07;;;;;;;;;;5038383;28;20194;-76
2021/01/22 13:25:13;;;;;;;10.20;6.20;;;;;;;;;;5035886;28;20556;-75
2021/01/22 13:27:39;;;;;;;8.53;4.30;;;;;;;;;;5026420;28;20598;-76
2021/01/22 13:30:06;;;;;;;6.63;4.30;;;;;;;;;;5034107;28;20643;-76
2021/01/22 13:32:33;;;;;;;7.83;4.83;;;;;;;;;;5035791;28;20178;-76
2021/01/22 13:34:59;;;;;;;13.33;4.73;;;;;;;;;;5037365;28;20222;-77
2021/01/22 13:37:26;;;;;;;7.50;4.10;;;;;;;;;;5036483;28;20189;-77
2021/01/22 13:39:52;;;;;;;5.57;4.33;;;;;;;;;;5038163;28;20183;-77
2021/01/22 13:42:18;;;;;;;6.37;4.20;;;;;;;;;;5038581;28;20221;-77
2021/01/22 13:44:44;;;;;;;5.17;4.23;;;;;;;;;;5039005;28;20225;-76
2021/01/22 13:47:10;;;;;;;6.40;4.03;;;;;;;;;;5035346;28;20672;-76
2021/01/22 13:49:36;;;;;;;6.20;4.07;;;;;;;;;;5039291;28;20304;-77
2021/01/22 13:52:03;;;;;;;7.50;4.57;;;;;;;;;;5037071;28;20205;-76
2021/01/22 13:54:29;;;;;;;4.27;3.80;;;;;;;;;;5035952;28;20632;-76
2021/01/22 13:56:55;;;;;;;4.43;3.60;;;;;;;;;;5037223;28;20190;-77
2021/01/22 13:59:22;;;;;;;6.33;3.47;;;;;;;;;;5036784;28;20186;-76
2021/01/22 14:01:50;;;;;;;5.17;2.97;;;;;;;;;;5037196;28;20292;-77
2021/01/22 14:04:17;;;;;;;4.10;2.87;;;;;;;;;;5037462;28;20289;-77
2021/01/22 14:06:43;;;;;;;5.43;3.87;;;;;;;;;;5036913;28;20265;-79
2021/01/22 14:09:09;;;;;;;4.17;3.17;;;;;;;;;;5037504;28;20186;-76
2021/01/22 14:11:35;;;;;;;4.67;3.07;;;;;;;;;;5037654;28;20182;-77
2021/01/22 14:14:01;;;;;;;3.87;2.90;;;;;;;;;;5036895;28;20213;-77
2021/01/22 14:16:28;;;;;;;6.53;2.90;;;;;;;;;;5038631;28;20223;-76
2021/01/22 14:18:54;;;;;;;5.57;2.80;;;;;;;;;;5036147;28;20185;-77
2021/01/22 14:21:20;;;;;;;4.73;2.47;;;;;;;;;;5035823;28;20240;-76
2021/01/22 14:23:46;;;;;;;3.37;2.70;;;;;;;;;;5035720;28;20206;-76
2021/01/22 14:26:12;;;;;;;3.93;2.70;;;;;;;;;;5035234;28;20548;-76